Time;durP1;ratioP1;P1;durP2;ratioP2;P2;SDS_P1;SDS_P2;PMS_P1;PMS_P2;Temp;Humidity;BMP_temperature;BMP_pressure;BME280_temperature;BME280_humidity;BME280_pressure;Samples;Min_cycle;Max_cycle;Signal;HPM_P1;HPM_P2
2022/01/02 00:00:17;;;;;;;14.43;7.90;;;11.50;99.90;;;;;;4821687;29;20041;-85
2022/01/02 00:02:51;;;;;;;14.10;7.93;;;11.40;99.90;;;;;;4817967;29;20065;-84
2022/01/02 00:05:28;;;;;;;16.38;7.97;;;11.40;99.90;;;;;;4802405;29;20074;-84
2022/01/02 00:08:07;;;;;;;14.85;8.48;;;11.30;99.90;;;;;;4826539;29;20413;-85
2022/01/02 00:10:53;;;;;;;12.85;7.47;;;11.40;99.90;;;;;;4813844;29;20037;-84
2022/01/02 00:13:36;;;;;;;15.98;7.95;;;11.30;99.90;;;;;;4836841;29;20065;-84
2022/01/02 00:16:08;;;;;;;16.60;8.40;;;11.30;99.90;;;;;;4813491;29;20539;-82
2022/01/02 00:18:52;;;;;;;19.95;8.48;;;11.30;99.90;;;;;;4815572;29;20072;-86
2022/01/02 00:21:44;;;;;;;20.48;8.20;;;11.30;99.90;;;;;;4834734;29;20049;-84
2022/01/02 00:24:14;;;;;;;18.93;8.87;;;11.20;99.90;;;;;;4815130;29;20045;-85
2022/01/02 00:27:06;;;;;;;19.80;9.85;;;11.20;99.90;;;;;;4815683;29;20053;-85
2022/01/02 00:29:44;;;;;;;16.42;9.25;;;11.20;99.90;;;;;;4804921;29;20082;-85
2022/01/02 00:32:22;;;;;;;20.10;9.40;;;11.20;99.90;;;;;;4831612;29;20620;-83
2022/01/02 00:34:51;;;;;;;15.75;8.10;;;11.20;99.90;;;;;;4801080;29;20054;-85
2022/01/02 00:37:18;;;;;;;17.15;8.98;;;11.10;99.90;;;;;;4807639;29;20077;-84
2022/01/02 00:39:43;;;;;;;19.67;9.32;;;11.10;99.90;;;;;;4802753;29;20040;-84
2022/01/02 00:42:20;;;;;;;20.98;9.30;;;11.20;99.90;;;;;;4819026;29;20150;-83
2022/01/02 00:45:28;;;;;;;16.75;8.65;;;11.10;99.90;;;;;;4817960;29;20037;-84
2022/01/02 00:48:06;;;;;;;21.75;9.77;;;11.10;99.90;;;;;;4748370;29;20050;-83
2022/01/02 00:50:46;;;;;;;16.63;9.75;;;11.10;99.90;;;;;;4831643;29;20421;-84
2022/01/02 00:53:16;;;;;;;22.83;10.57;;;11.10;99.90;;;;;;4824847;29;20544;-85
2022/01/02 00:55:43;;;;;;;15.73;8.93;;;11.10;99.90;;;;;;4826590;29;20045;-84
2022/01/02 00:58:14;;;;;;;22.10;10.00;;;11.00;99.90;;;;;;4803664;29;20240;-84
2022/01/02 01:00:49;;;;;;;17.67;9.60;;;11.00;99.90;;;;;;4817206;29;20557;-86
2022/01/02 01:03:29;;;;;;;17.35;9.95;;;11.00;99.90;;;;;;4833428;29;20520;-83
2022/01/02 01:05:57;;;;;;;16.73;9.57;;;11.00;99.90;;;;;;4833197;29;20037;-85
2022/01/02 01:08:23;;;;;;;22.52;10.52;;;11.00;99.90;;;;;;4784793;29;20065;-86
2022/01/02 01:10:50;;;;;;;19.52;9.80;;;11.00;99.90;;;;;;4820988;29;20281;-85
2022/01/02 01:13:16;;;;;;;20.40;9.98;;;11.00;99.90;;;;;;4805241;29;20476;-84
2022/01/02 01:15:42;;;;;;;20.45;9.55;;;11.10;99.90;;;;;;4797866;29;20388;-83
2022/01/02 01:18:08;;;;;;;19.23;9.70;;;11.00;99.90;;;;;;4779407;29;20113;-83
2022/01/02 01:20:41;;;;;;;16.50;8.95;;;11.00;99.90;;;;;;4795772;29;20172;-85
2022/01/02 01:23:07;;;;;;;15.95;9.85;;;11.00;99.90;;;;;;4832350;29;20046;-84
2022/01/02 01:25:36;;;;;;;19.38;9.52;;;11.00;99.90;;;;;;4816848;29;20093;-84
2022/01/02 01:28:02;;;;;;;23.35;10.98;;;11.10;99.90;;;;;;4834118;29;20045;-85
2022/01/02 01:30:29;;;;;;;21.05;9.48;;;11.10;99.90;;;;;;4806088;29;20391;-83
2022/01/02 01:32:55;;;;;;;18.52;9.48;;;11.00;99.90;;;;;;4817767;29;20573;-84
2022/01/02 01:35:22;;;;;;;21.40;9.75;;;11.00;99.90;;;;;;4797553;29;20054;-84
2022/01/02 01:37:48;;;;;;;25.58;11.52;;;11.00;99.90;;;;;;4805121;29;20506;-84
2022/01/02 01:40:16;;;;;;;22.63;9.73;;;11.00;99.90;;;;;;4795165;29;20051;-84
2022/01/02 01:42:54;;;;;;;22.27;11.27;;;10.90;99.90;;;;;;4814036;29;20037;-84
2022/01/02 01:47:51;;;;;;;24.30;12.27;;;10.90;99.90;;;;;;4814448;29;20310;-84
2022/01/02 01:50:18;;;;;;;26.85;12.00;;;10.90;99.90;;;;;;4826978;29;20054;-84
2022/01/02 01:52:44;;;;;;;22.80;11.25;;;10.90;99.90;;;;;;4816221;29;20144;-83
2022/01/02 01:55:11;;;;;;;24.88;11.85;;;10.90;99.90;;;;;;4781830;29;20131;-84
2022/01/02 01:57:41;;;;;;;28.25;11.77;;;10.90;99.90;;;;;;4799886;29;20275;-84
2022/01/02 02:00:14;;;;;;;26.98;11.70;;;10.80;99.90;;;;;;4839787;29;20581;-84
2022/01/02 02:02:40;;;;;;;27.08;11.23;;;10.80;99.90;;;;;;4813454;29;20049;-84
2022/01/02 02:05:06;;;;;;;28.75;12.50;;;10.80;99.90;;;;;;4831987;29;20042;-85
2022/01/02 02:07:39;;;;;;;34.75;12.35;;;10.80;99.90;;;;;;4801009;29;20075;-83
2022/01/02 02:12:41;;;;;;;22.83;11.82;;;10.80;99.90;;;;;;4826908;29;20085;-85
2022/01/02 02:15:09;;;;;;;32.33;13.43;;;10.80;99.90;;;;;;4806818;29;20042;-84
2022/01/02 02:17:36;;;;;;;25.25;11.35;;;10.80;99.90;;;;;;4796262;29;20052;-83
2022/01/02 02:20:16;;;;;;;26.52;12.60;;;10.80;99.90;;;;;;4794555;29;20593;-83
2022/01/02 02:22:46;;;;;;;23.05;11.45;;;10.80;99.90;;;;;;4807776;29;20046;-85
2022/01/02 02:25:13;;;;;;;26.33;12.15;;;10.90;99.90;;;;;;4796211;29;20034;-84
2022/01/02 02:27:40;;;;;;;26.80;10.68;;;10.80;99.90;;;;;;4811468;29;20088;-84
2022/01/02 02:30:07;;;;;;;24.00;11.52;;;10.80;99.90;;;;;;4826238;29;20084;-84
2022/01/02 02:32:32;;;;;;;25.33;11.85;;;10.80;99.90;;;;;;4831381;29;20107;-84
2022/01/02 02:34:58;;;;;;;32.17;11.65;;;10.80;99.90;;;;;;4799057;29;20141;-84
2022/01/02 02:37:25;;;;;;;28.13;11.60;;;10.90;99.90;;;;;;4811925;29;20046;-84
2022/01/02 02:39:52;;;;;;;28.27;10.80;;;10.80;99.90;;;;;;4779652;29;20049;-84
2022/01/02 02:42:55;;;;;;;25.95;10.65;;;10.90;99.90;;;;;;4809689;29;20045;-86
2022/01/02 02:51:03;;;;;;;43.60;12.98;;;10.90;99.90;;;;;;4828143;29;20396;-84
2022/01/02 02:53:29;;;;;;;33.95;11.52;;;10.90;99.90;;;;;;4800544;29;20427;-85
2022/01/02 02:55:58;;;;;;;31.67;11.77;;;10.90;99.90;;;;;;4830117;29;20616;-84
2022/01/02 03:00:56;;;;;;;25.58;13.05;;;10.90;99.90;;;;;;4818563;29;20047;-85
2022/01/02 03:03:22;;;;;;;27.25;11.73;;;10.90;99.90;;;;;;4812230;29;20588;-84
2022/01/02 03:05:48;;;;;;;25.33;11.68;;;10.90;99.90;;;;;;4785951;29;20045;-84
2022/01/02 03:08:13;;;;;;;26.40;12.02;;;11.00;99.90;;;;;;4802769;29;20384;-83
2022/01/02 03:10:39;;;;;;;27.67;11.88;;;11.00;99.90;;;;;;4796424;29;20041;-84
2022/01/02 03:13:05;;;;;;;28.38;12.30;;;11.00;99.90;;;;;;4796196;29;20055;-83
2022/01/02 03:15:31;;;;;;;26.98;11.88;;;11.00;99.90;;;;;;4797170;29;20420;-85
2022/01/02 03:17:56;;;;;;;29.05;11.98;;;11.00;99.90;;;;;;4801396;29;20041;-85
2022/01/02 03:20:22;;;;;;;30.15;12.38;;;10.90;99.90;;;;;;4798647;29;20048;-84
2022/01/02 03:22:48;;;;;;;26.85;11.25;;;11.00;99.90;;;;;;4781075;29;20060;-84
2022/01/02 03:25:14;;;;;;;25.95;11.82;;;11.00;99.90;;;;;;4784745;29;20113;-85
2022/01/02 03:27:41;;;;;;;30.20;12.57;;;10.90;99.90;;;;;;4794480;29;20052;-84
2022/01/02 03:30:08;;;;;;;22.55;10.93;;;10.90;99.90;;;;;;4825561;29;20053;-85
2022/01/02 03:32:33;;;;;;;22.10;11.35;;;10.90;99.90;;;;;;4812068;29;20071;-84
2022/01/02 03:34:59;;;;;;;23.65;10.75;;;10.90;99.90;;;;;;4796898;29;20049;-85
2022/01/02 03:37:28;;;;;;;25.73;11.70;;;10.90;99.90;;;;;;4812762;29;20045;-84
2022/01/02 03:39:55;;;;;;;24.63;11.10;;;11.00;99.90;;;;;;4801956;29;20540;-86
2022/01/02 03:42:21;;;;;;;22.20;10.20;;;11.00;99.90;;;;;;4831359;29;20503;-87
2022/01/02 03:44:46;;;;;;;25.35;11.95;;;11.00;99.90;;;;;;4818936;29;20197;-85
2022/01/02 03:47:12;;;;;;;25.40;10.57;;;11.00;99.90;;;;;;4802013;29;20088;-85
2022/01/02 03:49:38;;;;;;;21.30;10.30;;;11.00;99.90;;;;;;4785694;29;20042;-84
2022/01/02 03:52:04;;;;;;;30.08;11.82;;;11.00;99.90;;;;;;4798498;29;20046;-85
2022/01/02 03:54:30;;;;;;;26.38;10.23;;;11.00;99.90;;;;;;4797125;29;20045;-85
2022/01/02 03:56:56;;;;;;;26.20;10.85;;;11.00;99.90;;;;;;4811268;29;20186;-85
2022/01/02 03:59:23;;;;;;;28.92;10.25;;;11.00;99.90;;;;;;4797755;29;20811;-84
2022/01/02 04:01:51;;;;;;;26.63;11.65;;;11.00;99.90;;;;;;4794118;29;20687;-84
2022/01/02 04:04:17;;;;;;;18.33;9.48;;;11.00;99.90;;;;;;4799822;29;20053;-85
2022/01/02 04:06:43;;;;;;;22.73;9.80;;;11.00;99.90;;;;;;4812407;29;20045;-83
2022/01/02 04:09:09;;;;;;;25.55;10.38;;;11.00;99.90;;;;;;4795861;29;20061;-86
2022/01/02 04:11:35;;;;;;;31.10;11.48;;;11.00;99.90;;;;;;4799972;29;20060;-83
2022/01/02 04:14:00;;;;;;;24.08;9.98;;;11.00;99.90;;;;;;4808418;29;20584;-84
2022/01/02 04:16:26;;;;;;;31.00;11.13;;;11.00;99.90;;;;;;4810221;29;20045;-85
2022/01/02 04:18:52;;;;;;;29.20;10.63;;;11.00;99.90;;;;;;4811127;29;20053;-86
2022/01/02 04:21:18;;;;;;;24.77;10.05;;;11.10;99.90;;;;;;4810491;29;20042;-85
2022/01/02 04:23:43;;;;;;;28.05;10.50;;;11.00;99.90;;;;;;4805222;29;20049;-85
2022/01/02 04:26:10;;;;;;;30.15;10.98;;;11.10;99.90;;;;;;4797240;29;20045;-84
2022/01/02 04:28:36;;;;;;;24.13;9.43;;;11.10;99.90;;;;;;4801650;29;20077;-84
2022/01/02 04:31:01;;;;;;;22.77;10.20;;;11.10;99.90;;;;;;4786912;29;20041;-85
2022/01/02 04:33:27;;;;;;;32.72;11.82;;;11.10;99.90;;;;;;4816172;29;20041;-86
2022/01/02 04:35:53;;;;;;;31.45;11.85;;;11.10;99.90;;;;;;4781592;29;20437;-86
2022/01/02 04:38:19;;;;;;;23.38;10.10;;;11.00;99.90;;;;;;4843145;29;20073;-84
2022/01/02 04:40:47;;;;;;;27.60;11.25;;;11.00;99.90;;;;;;4828427;29;20045;-83
2022/01/02 04:43:13;;;;;;;32.35;11.10;;;11.00;99.90;;;;;;4816084;29;20038;-85
2022/01/02 04:45:39;;;;;;;36.38;12.43;;;11.00;99.90;;;;;;4796298;29;20064;-84
2022/01/02 04:48:05;;;;;;;28.45;10.77;;;11.10;99.90;;;;;;4787892;29;20049;-85
2022/01/02 04:50:31;;;;;;;34.83;11.90;;;11.00;99.90;;;;;;4819762;29;20053;-84
2022/01/02 04:52:57;;;;;;;33.53;11.65;;;11.10;99.90;;;;;;4801870;29;20084;-85
2022/01/02 04:55:22;;;;;;;31.55;10.82;;;11.10;99.90;;;;;;4786693;29;20045;-85
2022/01/02 04:57:48;;;;;;;22.15;9.57;;;11.10;99.90;;;;;;4801810;29;20351;-86
2022/01/02 05:00:14;;;;;;;30.30;10.40;;;11.10;99.90;;;;;;4815899;29;20056;-84
2022/01/02 05:02:40;;;;;;;21.65;9.32;;;11.10;99.90;;;;;;4801280;29;20603;-84
2022/01/02 05:05:06;;;;;;;29.10;9.85;;;11.10;99.90;;;;;;4789842;29;20140;-84
2022/01/02 05:07:32;;;;;;;27.63;9.95;;;11.10;99.90;;;;;;4798591;29;20046;-83
2022/01/02 05:09:59;;;;;;;23.83;8.90;;;11.20;99.90;;;;;;4802596;29;20049;-85
2022/01/02 05:12:25;;;;;;;29.85;9.27;;;11.20;99.90;;;;;;4805129;29;20041;-85
2022/01/02 05:14:51;;;;;;;27.10;9.45;;;11.20;99.90;;;;;;4813139;29;20084;-83
2022/01/02 05:17:17;;;;;;;27.10;9.32;;;11.30;99.90;;;;;;4819875;29;20564;-84
2022/01/02 05:19:42;;;;;;;20.02;8.10;;;11.30;99.90;;;;;;4801934;29;20124;-84
2022/01/02 05:22:08;;;;;;;21.52;9.18;;;11.30;99.90;;;;;;4802326;29;20186;-84
2022/01/02 05:24:34;;;;;;;21.45;9.27;;;11.30;99.90;;;;;;4802689;29;20048;-85
2022/01/02 05:27:00;;;;;;;27.17;8.38;;;11.30;99.90;;;;;;4806365;29;20045;-84
2022/01/02 05:29:25;;;;;;;26.02;8.68;;;11.30;99.90;;;;;;4804451;29;20045;-83
2022/01/02 05:31:51;;;;;;;23.02;8.95;;;11.30;99.90;;;;;;4801475;29;20049;-84
2022/01/02 05:34:18;;;;;;;18.88;8.23;;;11.30;99.90;;;;;;4784790;29;21812;-86
2022/01/02 05:36:48;;;;;;;26.17;8.80;;;11.30;99.90;;;;;;4800930;29;20100;-85
2022/01/02 05:39:19;;;;;;;23.83;7.38;;;11.40;99.90;;;;;;4814030;29;20052;-85
2022/01/02 05:41:49;;;;;;;30.23;8.75;;;11.40;99.90;;;;;;4817419;29;20140;-84
2022/01/02 05:44:14;;;;;;;27.98;9.55;;;11.40;99.90;;;;;;4805560;29;20049;-84
2022/01/02 05:46:41;;;;;;;27.58;10.00;;;11.40;99.90;;;;;;4807244;29;20412;-84
2022/01/02 05:49:08;;;;;;;28.50;8.77;;;11.40;99.90;;;;;;4817369;29;20045;-86
2022/01/02 05:51:34;;;;;;;28.67;9.60;;;11.40;99.90;;;;;;4796858;29;20049;-85
2022/01/02 05:53:59;;;;;;;27.13;7.85;;;11.40;99.90;;;;;;4811493;29;20057;-86
2022/01/02 05:56:25;;;;;;;24.05;7.53;;;11.40;99.90;;;;;;4819527;29;20194;-85
2022/01/02 05:58:51;;;;;;;28.08;7.90;;;11.40;99.90;;;;;;4818650;29;20521;-86
2022/01/02 06:01:17;;;;;;;31.52;8.98;;;11.40;99.90;;;;;;4800789;29;20068;-85
2022/01/02 06:03:43;;;;;;;28.75;7.65;;;11.40;99.90;;;;;;4802393;29;20656;-85
2022/01/02 06:06:08;;;;;;;34.50;8.55;;;11.40;99.90;;;;;;4797567;29;20109;-85
2022/01/02 06:08:34;;;;;;;24.38;7.95;;;11.50;99.90;;;;;;4798382;29;20140;-86
2022/01/02 06:11:00;;;;;;;25.20;8.38;;;11.50;99.90;;;;;;4799839;29;20264;-85
2022/01/02 06:13:26;;;;;;;23.60;7.65;;;11.50;99.90;;;;;;4802860;29;20056;-87
2022/01/02 06:15:53;;;;;;;24.48;7.53;;;11.50;99.90;;;;;;4812097;29;20052;-86
2022/01/02 06:18:19;;;;;;;24.58;7.72;;;11.50;99.90;;;;;;4812878;29;20049;-87
2022/01/02 06:20:45;;;;;;;21.13;7.72;;;11.60;99.90;;;;;;4810756;29;20042;-83
2022/01/02 06:23:10;;;;;;;19.48;7.13;;;11.60;99.90;;;;;;4813582;29;20046;-85
2022/01/02 06:25:36;;;;;;;28.92;6.88;;;11.70;99.90;;;;;;4797748;29;20497;-87
2022/01/02 06:28:02;;;;;;;17.55;5.90;;;11.70;99.90;;;;;;4799167;29;20056;-86
2022/01/02 06:30:28;;;;;;;19.35;6.63;;;11.70;99.90;;;;;;4807124;29;20532;-85
2022/01/02 06:32:55;;;;;;;18.35;5.60;;;11.70;99.90;;;;;;4819585;29;20049;-84
2022/01/02 06:35:32;;;;;;;15.45;5.40;;;11.80;99.90;;;;;;4814743;29;20132;-86
2022/01/02 06:37:59;;;;;;;15.73;6.00;;;11.90;99.90;;;;;;4794176;29;20331;-83
2022/01/02 06:40:26;;;;;;;18.33;5.53;;;11.90;99.90;;;;;;4825097;29;20622;-84
2022/01/02 06:42:52;;;;;;;19.75;5.22;;;11.90;99.90;;;;;;4796144;29;20037;-82
2022/01/02 06:45:19;;;;;;;16.33;5.18;;;12.00;99.90;;;;;;4816931;29;20046;-85
2022/01/02 06:47:45;;;;;;;20.67;5.78;;;12.00;99.90;;;;;;4808271;29;20140;-86
2022/01/02 06:50:12;;;;;;;15.98;5.00;;;12.00;99.90;;;;;;4799322;29;20153;-87
2022/01/02 06:52:38;;;;;;;10.38;3.78;;;12.00;99.90;;;;;;4828742;29;20156;-86
2022/01/02 06:55:04;;;;;;;14.95;4.55;;;12.00;99.90;;;;;;4798265;29;20454;-86
2022/01/02 06:57:30;;;;;;;11.88;4.55;;;12.10;99.90;;;;;;4800509;29;20041;-86
2022/01/02 06:59:56;;;;;;;12.88;4.63;;;12.10;99.90;;;;;;4817102;29;20038;-86
2022/01/02 07:02:22;;;;;;;14.93;4.85;;;12.10;99.90;;;;;;4803416;29;20029;-85
2022/01/02 07:04:48;;;;;;;11.18;3.85;;;12.10;99.90;;;;;;4798610;29;20081;-86
2022/01/02 07:07:13;;;;;;;12.15;3.90;;;12.10;99.90;;;;;;4795979;29;20049;-84
2022/01/02 07:09:39;;;;;;;15.32;4.25;;;12.10;99.90;;;;;;4788675;29;20049;-84
2022/01/02 07:12:06;;;;;;;10.48;5.03;;;12.10;99.90;;;;;;4801018;29;20091;-84
2022/01/02 07:14:31;;;;;;;16.83;4.93;;;12.10;99.90;;;;;;4809676;29;20042;-83
2022/01/02 07:16:58;;;;;;;11.88;5.32;;;12.10;99.90;;;;;;4811096;29;20096;-87
2022/01/02 07:19:24;;;;;;;12.77;4.53;;;12.00;99.90;;;;;;4822386;29;20106;-83
2022/01/02 07:21:51;;;;;;;18.65;4.78;;;12.00;99.90;;;;;;4806575;29;20481;-86
2022/01/02 07:24:18;;;;;;;12.00;4.85;;;12.00;99.90;;;;;;4809504;29;20097;-86
2022/01/02 07:26:44;;;;;;;14.25;5.03;;;12.00;99.90;;;;;;4808555;29;20085;-86
2022/01/02 07:29:10;;;;;;;16.45;5.15;;;12.00;99.90;;;;;;4790090;29;20038;-84
2022/01/02 07:31:36;;;;;;;14.30;4.90;;;12.00;99.90;;;;;;4780873;29;20106;-84
2022/01/02 07:34:03;;;;;;;13.43;4.88;;;11.90;99.90;;;;;;4793291;29;20199;-87
2022/01/02 07:36:29;;;;;;;11.27;4.55;;;12.00;99.90;;;;;;4810363;29;20076;-84
2022/01/02 07:38:55;;;;;;;12.95;4.88;;;12.00;99.90;;;;;;4792679;29;20124;-86
2022/01/02 07:41:20;;;;;;;10.02;4.45;;;11.90;99.90;;;;;;4794569;29;20045;-87
2022/01/02 07:43:46;;;;;;;12.80;4.38;;;11.90;99.90;;;;;;4801771;29;20048;-87
2022/01/02 07:46:12;;;;;;;15.15;4.65;;;11.90;99.90;;;;;;4812654;29;20038;-85
2022/01/02 07:48:38;;;;;;;15.77;5.57;;;11.90;99.90;;;;;;4826017;29;20049;-84
2022/01/02 07:51:05;;;;;;;13.32;4.78;;;11.90;99.90;;;;;;4826594;29;20099;-86
2022/01/02 07:53:31;;;;;;;15.35;4.90;;;11.90;99.90;;;;;;4782364;29;20037;-87
2022/01/02 07:55:57;;;;;;;11.35;4.65;;;11.90;99.90;;;;;;4812870;29;20045;-84
2022/01/02 07:58:23;;;;;;;16.48;4.60;;;11.80;99.90;;;;;;4811704;29;20392;-87
2022/01/02 08:00:50;;;;;;;20.73;4.95;;;11.90;99.90;;;;;;4796433;29;20489;-86
2022/01/02 08:03:16;;;;;;;13.25;5.40;;;11.90;99.90;;;;;;4814162;29;20498;-87
2022/01/02 08:05:43;;;;;;;13.32;5.50;;;11.80;99.90;;;;;;4831656;29;20487;-87
2022/01/02 08:08:09;;;;;;;16.40;5.80;;;11.80;99.90;;;;;;4795872;29;20145;-86
2022/01/02 08:10:37;;;;;;;10.70;5.32;;;11.80;99.90;;;;;;4796704;29;20049;-86
2022/01/02 08:13:06;;;;;;;15.82;5.32;;;11.80;99.90;;;;;;4813676;29;20413;-85
2022/01/02 08:15:32;;;;;;;15.80;5.93;;;11.70;99.90;;;;;;4810390;29;20464;-86
2022/01/02 08:17:58;;;;;;;14.13;5.88;;;11.70;99.90;;;;;;4785169;29;20041;-84
2022/01/02 08:20:24;;;;;;;14.65;6.32;;;11.70;99.90;;;;;;4810098;29;21027;-84
2022/01/02 08:22:50;;;;;;;12.80;6.18;;;11.60;99.90;;;;;;4781177;29;20045;-86
2022/01/02 08:25:16;;;;;;;14.88;5.97;;;11.60;99.90;;;;;;4780743;29;20049;-84
2022/01/02 08:27:41;;;;;;;16.63;6.05;;;11.60;99.90;;;;;;4796428;29;20049;-81
2022/01/02 08:30:08;;;;;;;12.48;5.97;;;11.60;99.90;;;;;;4796694;29;20046;-84
2022/01/02 08:32:33;;;;;;;12.85;5.78;;;11.50;99.90;;;;;;4798936;29;20049;-86
2022/01/02 08:34:59;;;;;;;12.70;5.35;;;11.50;99.90;;;;;;4783057;29;20595;-86
2022/01/02 08:37:25;;;;;;;13.88;5.78;;;11.50;99.90;;;;;;4795725;29;20045;-88
2022/01/02 08:39:51;;;;;;;16.88;5.28;;;11.50;99.90;;;;;;4795239;29;20558;-89
2022/01/02 08:42:17;;;;;;;14.10;5.07;;;11.60;99.90;;;;;;4796613;29;20049;-85
2022/01/02 08:44:43;;;;;;;13.63;5.20;;;11.60;99.90;;;;;;4794577;29;20043;-88
2022/01/02 08:47:10;;;;;;;15.27;5.68;;;11.60;99.90;;;;;;4813307;29;20147;-86
2022/01/02 08:49:36;;;;;;;12.88;5.78;;;11.60;99.90;;;;;;4804149;29;20049;-85
2022/01/02 08:52:02;;;;;;;13.15;6.05;;;11.60;99.90;;;;;;4818847;29;20529;-85
2022/01/02 08:54:28;;;;;;;16.17;5.38;;;11.50;99.90;;;;;;4815916;29;20870;-85
2022/01/02 08:56:54;;;;;;;15.05;4.82;;;11.50;99.90;;;;;;4808966;29;20083;-85
2022/01/02 08:59:24;;;;;;;12.73;4.90;;;11.50;99.90;;;;;;4798440;29;21603;-86
2022/01/02 09:01:54;;;;;;;13.02;5.80;;;11.50;99.90;;;;;;4811543;29;20106;-86
2022/01/02 09:04:19;;;;;;;11.57;5.25;;;11.50;99.90;;;;;;4804865;29;20197;-85
2022/01/02 09:06:45;;;;;;;12.25;4.95;;;11.40;99.90;;;;;;4800943;29;20094;-85
2022/01/02 09:09:11;;;;;;;15.60;5.53;;;11.40;99.90;;;;;;4776839;29;20080;-86
2022/01/02 09:11:37;;;;;;;10.85;5.63;;;11.40;99.90;;;;;;4786301;29;20053;-87
2022/01/02 09:14:03;;;;;;;14.52;6.07;;;11.40;99.90;;;;;;4795891;29;20080;-86
2022/01/02 09:16:30;;;;;;;13.65;5.93;;;11.40;99.90;;;;;;4794575;29;20054;-86
2022/01/02 09:18:56;;;;;;;13.90;6.30;;;11.40;99.90;;;;;;4809923;29;20061;-85
2022/01/02 09:21:22;;;;;;;14.40;5.50;;;11.40;99.90;;;;;;4810401;29;20124;-84
2022/01/02 09:23:48;;;;;;;15.40;5.68;;;11.40;99.90;;;;;;4793775;29;20302;-85
2022/01/02 09:26:14;;;;;;;14.80;6.03;;;11.50;99.90;;;;;;4807092;29;20042;-85
2022/01/02 09:28:40;;;;;;;15.15;6.63;;;11.50;99.90;;;;;;4792651;29;20125;-83
2022/01/02 09:31:07;;;;;;;19.35;6.35;;;11.50;99.90;;;;;;4819620;29;20140;-83
2022/01/02 09:33:32;;;;;;;10.45;5.50;;;11.50;99.90;;;;;;4804273;29;20064;-85
2022/01/02 09:35:59;;;;;;;16.67;6.03;;;11.50;99.90;;;;;;4810438;29;20200;-86
2022/01/02 09:38:24;;;;;;;11.77;5.72;;;11.60;99.90;;;;;;4834112;29;20095;-84
2022/01/02 09:40:50;;;;;;;19.40;6.32;;;11.60;99.90;;;;;;4809122;29;20340;-87
2022/01/02 09:43:19;;;;;;;17.83;5.90;;;11.60;99.90;;;;;;4800739;29;20052;-86
2022/01/02 09:45:47;;;;;;;13.85;5.18;;;11.60;99.90;;;;;;4794428;29;20051;-86
2022/01/02 09:48:13;;;;;;;11.13;5.05;;;11.60;99.90;;;;;;4807163;29;20524;-86
2022/01/02 09:50:39;;;;;;;13.23;5.25;;;11.70;99.90;;;;;;4794214;29;20045;-85
2022/01/02 09:53:06;;;;;;;13.13;5.10;;;11.70;99.90;;;;;;4807787;29;20045;-85
2022/01/02 09:55:32;;;;;;;15.10;5.38;;;11.70;99.90;;;;;;4792830;29;20108;-86
2022/01/02 09:57:59;;;;;;;9.90;4.38;;;11.70;99.90;;;;;;4811862;29;20045;-85
2022/01/02 10:00:26;;;;;;;16.17;5.68;;;11.70;99.90;;;;;;4796123;29;20047;-86
2022/01/02 10:03:05;;;;;;;13.50;5.78;;;11.70;99.90;;;;;;4820674;29;20998;-85
2022/01/02 10:05:54;;;;;;;10.82;4.63;;;11.80;99.90;;;;;;4810573;29;20073;-82
2022/01/02 10:08:24;;;;;;;11.50;5.57;;;11.80;99.90;;;;;;4815334;29;20101;-89
2022/01/02 10:11:11;;;;;;;14.48;5.97;;;11.80;99.90;;;;;;4807819;29;20280;-85
2022/01/02 10:13:50;;;;;;;19.58;5.65;;;11.80;99.90;;;;;;4814591;29;20786;-87
2022/01/02 10:16:34;;;;;;;15.88;6.10;;;11.80;99.90;;;;;;4822227;29;20142;-86
2022/01/02 10:19:20;;;;;;;13.48;6.03;;;11.80;99.90;;;;;;4830031;29;20040;-86
2022/01/02 10:21:57;;;;;;;12.88;5.78;;;11.80;99.90;;;;;;4819224;29;20049;-84
2022/01/02 10:24:27;;;;;;;13.23;5.80;;;11.90;99.90;;;;;;4821068;29;20693;-85
2022/01/02 10:27:16;;;;;;;14.60;5.22;;;11.80;99.90;;;;;;4833774;29;20052;-86
2022/01/02 10:29:51;;;;;;;11.95;5.38;;;11.90;99.90;;;;;;4819935;29;20069;-87
2022/01/02 10:32:36;;;;;;;13.00;6.07;;;11.80;99.90;;;;;;4833205;29;20067;-85
2022/01/02 10:35:22;;;;;;;9.95;5.55;;;11.80;99.90;;;;;;4832582;29;20053;-86
2022/01/02 10:37:56;;;;;;;11.73;5.40;;;11.90;99.90;;;;;;4815643;29;20049;-88
2022/01/02 10:40:34;;;;;;;10.65;5.50;;;11.90;99.90;;;;;;4798830;29;20085;-86
2022/01/02 10:43:21;;;;;;;18.35;6.03;;;11.80;99.90;;;;;;4825852;29;20403;-87
2022/01/02 10:45:50;;;;;;;14.60;6.18;;;11.90;99.90;;;;;;4829549;29;20065;-86
2022/01/02 10:48:34;;;;;;;12.57;6.18;;;11.90;99.90;;;;;;4803875;29;20410;-87
2022/01/02 10:51:02;;;;;;;10.35;6.10;;;11.90;99.90;;;;;;4818053;29;20064;-86
2022/01/02 10:53:28;;;;;;;9.02;6.05;;;11.90;99.90;;;;;;4827077;29;20049;-86
2022/01/02 10:55:58;;;;;;;16.30;6.35;;;12.00;99.90;;;;;;4818512;29;20520;-88
2022/01/02 10:58:30;;;;;;;10.15;5.90;;;12.00;99.90;;;;;;4802851;29;20080;-89
2022/01/02 11:01:10;;;;;;;15.18;5.95;;;12.00;99.90;;;;;;4811202;29;20813;-85
2022/01/02 11:03:44;;;;;;;16.13;5.60;;;12.10;99.90;;;;;;4834752;29;20402;-85
2022/01/02 11:06:30;;;;;;;14.43;6.03;;;12.20;99.90;;;;;;4806260;29;20049;-86
2022/01/02 11:12:48;;;;;;;14.77;5.97;;;12.20;99.90;;;;;;4865602;29;20061;-87
2022/01/02 11:15:35;;;;;;;13.05;5.88;;;12.20;99.90;;;;;;4795718;29;20084;-85
2022/01/02 11:19:01;;;;;;;12.05;5.95;;;12.20;99.90;;;;;;5078895;27;20445;-86
2022/01/02 11:21:57;;;;;;;11.80;5.40;;;12.20;99.90;;;;;;5048800;28;20040;-84
2022/01/02 11:24:38;;;;;;;11.93;5.47;;;12.20;99.90;;;;;;5034217;28;20376;-88
2022/01/02 11:28:05;;;;;;;16.00;5.53;;;12.20;99.90;;;;;;5033934;28;20409;-88
2022/01/02 11:30:49;;;;;;;11.35;5.45;;;12.10;99.90;;;;;;5054692;28;21319;-87
2022/01/02 11:33:52;;;;;;;;;;;;;;;;;;;;;
2022/01/02 11:40:30;;;;;;;12.93;6.05;;;12.10;99.90;;;;;;5047506;28;21022;-88
2022/01/02 11:43:08;;;;;;;11.40;5.63;;;12.00;99.90;;;;;;5027464;28;21937;-88
2022/01/02 11:45:42;;;;;;;13.90;6.15;;;12.00;99.90;;;;;;5031416;28;21484;-84
2022/01/02 11:49:37;;;;;;;17.77;6.00;;;12.00;99.90;;;;;;5030445;28;20424;-85
2022/01/02 11:52:34;;;;;;;12.48;5.78;;;12.00;99.90;;;;;;4970784;28;20077;-87
2022/01/02 11:55:29;;;;;;;11.25;6.05;;;12.00;99.90;;;;;;4956969;28;20111;-87
2022/01/02 11:59:20;;;;;;;;;;;;;;;;;;;;;
2022/01/02 12:07:58;;;;;;;9.15;5.50;;;12.00;99.90;;;;;;4993327;28;20049;-87
2022/01/02 12:10:37;;;;;;;13.55;6.25;;;12.00;99.90;;;;;;4942930;28;20058;-88
2022/01/02 12:17:52;;;;;;;10.82;5.28;;;11.90;99.90;;;;;;4895116;28;20602;-89
2022/01/02 12:20:04;;;;;;;14.52;5.35;;;11.90;99.90;;;;;;4920608;28;20216;-88
2022/01/02 12:23:08;;;;;;;;;;;;;;;;;;;;;
2022/01/02 12:25:55;;;;;;;15.27;5.43;;;11.90;99.90;;;;;;4976405;28;20061;-88
2022/01/02 12:28:21;;;;;;;10.90;4.15;;;12.00;99.90;;;;;;4954296;28;20402;-86
2022/01/02 12:30:54;;;;;;;12.35;4.25;;;12.00;99.90;;;;;;5025478;28;20045;-87
2022/01/02 12:36:42;;;;;;;;;;;;;;;;;;;;;
2022/01/02 12:39:35;;;;;;;15.05;3.60;;;11.90;99.90;;;;;;5047172;28;20091;-88
2022/01/02 12:42:11;;;;;;;15.20;3.20;;;12.00;99.90;;;;;;5030303;28;20128;-88
2022/01/02 12:44:37;;;;;;;18.45;3.60;;;12.00;99.90;;;;;;5041103;28;20662;-85
2022/01/02 12:48:13;;;;;;;12.00;3.00;;;12.00;99.90;;;;;;5007965;28;20100;-89
2022/01/02 12:51:02;;;;;;;17.02;3.33;;;12.00;99.90;;;;;;5029199;28;20124;-85
2022/01/02 12:53:52;;;;;;;16.27;3.20;;;12.10;99.90;;;;;;5007266;28;20048;-88
2022/01/02 12:56:48;;;;;;;15.82;3.20;;;12.00;99.90;;;;;;5023348;28;20038;-88
2022/01/02 12:59:28;;;;;;;16.63;3.05;;;12.00;99.90;;;;;;5042399;28;20591;-87
2022/01/02 13:02:04;;;;;;;15.43;3.13;;;12.00;99.90;;;;;;5035438;28;20069;-86
2022/01/02 13:04:58;;;;;;;18.08;3.30;;;12.10;99.90;;;;;;5040813;28;20104;-86
2022/01/02 13:07:35;;;;;;;15.10;3.30;;;12.10;99.90;;;;;;5039432;28;20048;-88
2022/01/02 13:13:40;;;;;;;12.90;3.72;;;12.10;99.90;;;;;;5038810;28;20048;-88
2022/01/02 13:16:21;;;;;;;14.18;2.80;;;12.00;99.90;;;;;;5035553;28;20491;-89
2022/01/02 13:19:00;;;;;;;15.65;2.95;;;12.00;99.90;;;;;;5019856;28;20045;-86
2022/01/02 13:21:35;;;;;;;18.00;3.25;;;11.90;99.90;;;;;;5039835;28;20438;-88
2022/01/02 13:24:28;;;;;;;13.57;2.83;;;11.90;99.90;;;;;;5006855;28;20037;-89
2022/01/02 13:27:04;;;;;;;8.23;2.50;;;11.80;99.90;;;;;;5018928;28;20052;-88
2022/01/02 13:29:41;;;;;;;21.02;3.20;;;11.80;99.90;;;;;;5024006;28;20062;-87
2022/01/02 13:33:01;;;;;;;;;;;;;;;;;;;;;
2022/01/02 13:39:40;;;;;;;12.93;2.58;;;11.70;99.90;;;;;;5037121;28;20045;-89
2022/01/02 13:42:48;;;;;;;;;;;;;;;;;;;;;
2022/01/02 13:46:08;;;;;;;15.82;2.88;;;11.60;99.90;;;;;;5038919;28;20496;-90